MQF weather

Magnitogorsk International Airport
Magnitogorsk, Republic of Bashkortostan, Russia

Public forecast

Using degrees Celsius for public forecast. Weather courtesy of forecast.io.

Current aviation weather report (METAR) for Magnitogorsk International Airport

Retrieved 2020/04/03 00:30 UTC (15 minutes ago):

USCM 030030Z 17004MPS 9999 SCT040 M03/M09 Q1017 R18/090060 NOSIG RMK QFE725

Closest aviation forecast (TAF) to Magnitogorsk International Airport

Closest forecast is Ufa International Airport, 123.4 nm (228.6 km) NW. Retrieved 2020-04-03 00:21 UTC (24 minutes ago):

TAF UWUU 022246Z 0300/0324 20006G13MPS 9999 BKN030 TX07/0309Z TNM01/0301Z TEMPO 0300/0324 18003G08MPS BKN020CB